sensor_id;sensor_type;location;lat;lon;timestamp;P1;durP1;ratioP1;P2;durP2;ratioP2
14300;SDS011;7234;59.306;18.024;2023-12-20T00:01:24;4.93;;;1.80;;
14300;SDS011;7234;59.306;18.024;2023-12-20T00:03:51;8.00;;;1.60;;
14300;SDS011;7234;59.306;18.024;2023-12-20T00:06:18;7.23;;;1.77;;
14300;SDS011;7234;59.306;18.024;2023-12-20T00:08:45;5.70;;;1.73;;
14300;SDS011;7234;59.306;18.024;2023-12-20T00:11:12;10.93;;;1.97;;
14300;SDS011;7234;59.306;18.024;2023-12-20T00:13:39;9.33;;;1.87;;
14300;SDS011;7234;59.306;18.024;2023-12-20T00:16:08;6.50;;;1.80;;
14300;SDS011;7234;59.306;18.024;2023-12-20T00:18:35;10.27;;;2.47;;
14300;SDS011;7234;59.306;18.024;2023-12-20T00:21:02;4.70;;;1.60;;
14300;SDS011;7234;59.306;18.024;2023-12-20T00:23:29;3.87;;;1.77;;
14300;SDS011;7234;59.306;18.024;2023-12-20T00:25:56;4.17;;;1.50;;
14300;SDS011;7234;59.306;18.024;2023-12-20T00:28:23;4.53;;;1.30;;
14300;SDS011;7234;59.306;18.024;2023-12-20T00:30:50;10.33;;;1.80;;
14300;SDS011;7234;59.306;18.024;2023-12-20T00:33:19;9.93;;;1.77;;
14300;SDS011;7234;59.306;18.024;2023-12-20T00:35:45;8.77;;;1.40;;
14300;SDS011;7234;59.306;18.024;2023-12-20T00:38:13;7.43;;;1.50;;
14300;SDS011;7234;59.306;18.024;2023-12-20T00:40:40;5.97;;;1.73;;
14300;SDS011;7234;59.306;18.024;2023-12-20T00:43:07;7.07;;;1.70;;
14300;SDS011;7234;59.306;18.024;2023-12-20T00:45:34;2.93;;;1.33;;
14300;SDS011;7234;59.306;18.024;2023-12-20T00:48:01;5.67;;;1.50;;
14300;SDS011;7234;59.306;18.024;2023-12-20T00:50:30;4.57;;;1.90;;
14300;SDS011;7234;59.306;18.024;2023-12-20T00:52:57;5.70;;;1.50;;
14300;SDS011;7234;59.306;18.024;2023-12-20T00:55:23;10.63;;;1.60;;
14300;SDS011;7234;59.306;18.024;2023-12-20T00:57:50;9.50;;;1.67;;
14300;SDS011;7234;59.306;18.024;2023-12-20T01:00:18;6.73;;;1.90;;
14300;SDS011;7234;59.306;18.024;2023-12-20T01:02:45;5.07;;;1.57;;
14300;SDS011;7234;59.306;18.024;2023-12-20T01:05:14;6.17;;;1.83;;
14300;SDS011;7234;59.306;18.024;2023-12-20T01:07:44;7.57;;;1.57;;
14300;SDS011;7234;59.306;18.024;2023-12-20T01:10:11;9.00;;;1.53;;
14300;SDS011;7234;59.306;18.024;2023-12-20T01:12:38;10.80;;;2.33;;
14300;SDS011;7234;59.306;18.024;2023-12-20T01:15:05;8.30;;;1.93;;
14300;SDS011;7234;59.306;18.024;2023-12-20T01:17:32;9.93;;;1.70;;
14300;SDS011;7234;59.306;18.024;2023-12-20T01:19:59;5.57;;;1.80;;
14300;SDS011;7234;59.306;18.024;2023-12-20T01:22:26;6.70;;;1.50;;
14300;SDS011;7234;59.306;18.024;2023-12-20T01:24:54;7.87;;;1.77;;
14300;SDS011;7234;59.306;18.024;2023-12-20T01:27:21;7.57;;;1.70;;
14300;SDS011;7234;59.306;18.024;2023-12-20T01:29:49;7.30;;;1.77;;
14300;SDS011;7234;59.306;18.024;2023-12-20T01:32:16;11.10;;;2.13;;
14300;SDS011;7234;59.306;18.024;2023-12-20T01:34:43;7.63;;;1.73;;
14300;SDS011;7234;59.306;18.024;2023-12-20T01:37:10;6.63;;;2.00;;
14300;SDS011;7234;59.306;18.024;2023-12-20T01:39:36;11.10;;;1.70;;
14300;SDS011;7234;59.306;18.024;2023-12-20T01:42:05;10.63;;;2.57;;
14300;SDS011;7234;59.306;18.024;2023-12-20T01:44:32;5.63;;;1.87;;
14300;SDS011;7234;59.306;18.024;2023-12-20T01:46:59;11.17;;;1.70;;
14300;SDS011;7234;59.306;18.024;2023-12-20T01:49:26;7.40;;;1.47;;
14300;SDS011;7234;59.306;18.024;2023-12-20T01:51:54;8.83;;;2.20;;
14300;SDS011;7234;59.306;18.024;2023-12-20T01:54:22;4.90;;;1.73;;
14300;SDS011;7234;59.306;18.024;2023-12-20T01:56:49;10.63;;;1.90;;
14300;SDS011;7234;59.306;18.024;2023-12-20T01:59:19;5.30;;;1.73;;
14300;SDS011;7234;59.306;18.024;2023-12-20T02:01:47;8.93;;;2.27;;
14300;SDS011;7234;59.306;18.024;2023-12-20T02:04:14;6.60;;;2.10;;
14300;SDS011;7234;59.306;18.024;2023-12-20T02:06:42;8.57;;;2.23;;
14300;SDS011;7234;59.306;18.024;2023-12-20T02:09:09;8.90;;;1.90;;
14300;SDS011;7234;59.306;18.024;2023-12-20T02:11:36;8.93;;;1.77;;
14300;SDS011;7234;59.306;18.024;2023-12-20T02:14:04;8.17;;;1.97;;
14300;SDS011;7234;59.306;18.024;2023-12-20T02:16:37;6.43;;;1.63;;
14300;SDS011;7234;59.306;18.024;2023-12-20T02:19:04;7.97;;;1.77;;
14300;SDS011;7234;59.306;18.024;2023-12-20T02:21:37;9.67;;;1.83;;
14300;SDS011;7234;59.306;18.024;2023-12-20T02:24:04;9.00;;;1.90;;
14300;SDS011;7234;59.306;18.024;2023-12-20T02:26:32;7.17;;;2.40;;
14300;SDS011;7234;59.306;18.024;2023-12-20T02:28:59;6.50;;;1.90;;
14300;SDS011;7234;59.306;18.024;2023-12-20T02:31:27;5.53;;;1.63;;
14300;SDS011;7234;59.306;18.024;2023-12-20T02:33:54;4.70;;;1.60;;
14300;SDS011;7234;59.306;18.024;2023-12-20T02:36:21;13.03;;;2.40;;
14300;SDS011;7234;59.306;18.024;2023-12-20T02:38:49;7.20;;;1.70;;
14300;SDS011;7234;59.306;18.024;2023-12-20T02:41:16;5.57;;;1.77;;
14300;SDS011;7234;59.306;18.024;2023-12-20T02:43:43;11.20;;;2.67;;
14300;SDS011;7234;59.306;18.024;2023-12-20T02:46:10;9.63;;;1.73;;
14300;SDS011;7234;59.306;18.024;2023-12-20T02:48:40;5.37;;;1.50;;
14300;SDS011;7234;59.306;18.024;2023-12-20T02:51:07;6.00;;;1.63;;
14300;SDS011;7234;59.306;18.024;2023-12-20T02:53:34;9.27;;;2.33;;
14300;SDS011;7234;59.306;18.024;2023-12-20T02:56:02;5.40;;;1.67;;
14300;SDS011;7234;59.306;18.024;2023-12-20T02:58:29;6.27;;;1.63;;
14300;SDS011;7234;59.306;18.024;2023-12-20T03:00:56;6.50;;;1.47;;
14300;SDS011;7234;59.306;18.024;2023-12-20T03:03:24;4.67;;;1.50;;
14300;SDS011;7234;59.306;18.024;2023-12-20T03:05:51;6.57;;;1.70;;
14300;SDS011;7234;59.306;18.024;2023-12-20T03:08:18;3.83;;;1.27;;
14300;SDS011;7234;59.306;18.024;2023-12-20T03:10:45;5.27;;;1.70;;
14300;SDS011;7234;59.306;18.024;2023-12-20T03:13:14;6.10;;;1.53;;
14300;SDS011;7234;59.306;18.024;2023-12-20T03:15:41;7.17;;;1.90;;
14300;SDS011;7234;59.306;18.024;2023-12-20T03:18:08;4.63;;;1.40;;
14300;SDS011;7234;59.306;18.024;2023-12-20T03:20:35;7.03;;;1.60;;
14300;SDS011;7234;59.306;18.024;2023-12-20T03:23:03;7.80;;;1.53;;
14300;SDS011;7234;59.306;18.024;2023-12-20T03:25:30;6.67;;;1.70;;
14300;SDS011;7234;59.306;18.024;2023-12-20T03:27:57;5.70;;;1.77;;
14300;SDS011;7234;59.306;18.024;2023-12-20T03:30:25;6.07;;;1.60;;
14300;SDS011;7234;59.306;18.024;2023-12-20T03:32:52;7.87;;;2.17;;
14300;SDS011;7234;59.306;18.024;2023-12-20T03:35:19;5.60;;;1.70;;
14300;SDS011;7234;59.306;18.024;2023-12-20T03:37:46;7.33;;;1.93;;
14300;SDS011;7234;59.306;18.024;2023-12-20T03:40:13;4.37;;;1.50;;
14300;SDS011;7234;59.306;18.024;2023-12-20T03:42:40;6.77;;;1.77;;
14300;SDS011;7234;59.306;18.024;2023-12-20T03:45:07;5.93;;;1.63;;
14300;SDS011;7234;59.306;18.024;2023-12-20T03:47:37;8.90;;;1.70;;
14300;SDS011;7234;59.306;18.024;2023-12-20T03:50:04;7.03;;;2.10;;
14300;SDS011;7234;59.306;18.024;2023-12-20T03:52:32;4.50;;;1.50;;
14300;SDS011;7234;59.306;18.024;2023-12-20T03:54:59;7.10;;;1.70;;
14300;SDS011;7234;59.306;18.024;2023-12-20T03:57:26;6.53;;;1.77;;
14300;SDS011;7234;59.306;18.024;2023-12-20T03:59:53;9.53;;;1.97;;
14300;SDS011;7234;59.306;18.024;2023-12-20T04:02:20;7.17;;;2.03;;
14300;SDS011;7234;59.306;18.024;2023-12-20T04:04:48;7.17;;;2.07;;
14300;SDS011;7234;59.306;18.024;2023-12-20T04:07:15;8.63;;;2.03;;
14300;SDS011;7234;59.306;18.024;2023-12-20T04:09:42;6.00;;;1.80;;
14300;SDS011;7234;59.306;18.024;2023-12-20T04:12:09;6.30;;;1.63;;
14300;SDS011;7234;59.306;18.024;2023-12-20T04:14:36;7.47;;;2.20;;
14300;SDS011;7234;59.306;18.024;2023-12-20T04:17:03;6.10;;;1.67;;
14300;SDS011;7234;59.306;18.024;2023-12-20T04:19:30;6.33;;;1.67;;
14300;SDS011;7234;59.306;18.024;2023-12-20T04:21:58;4.17;;;1.53;;
14300;SDS011;7234;59.306;18.024;2023-12-20T04:24:25;5.57;;;1.80;;
14300;SDS011;7234;59.306;18.024;2023-12-20T04:26:52;6.97;;;1.90;;
14300;SDS011;7234;59.306;18.024;2023-12-20T04:29:19;5.80;;;1.70;;
14300;SDS011;7234;59.306;18.024;2023-12-20T04:31:46;5.43;;;1.70;;
14300;SDS011;7234;59.306;18.024;2023-12-20T04:34:15;4.57;;;1.60;;
14300;SDS011;7234;59.306;18.024;2023-12-20T04:36:42;4.60;;;1.57;;
14300;SDS011;7234;59.306;18.024;2023-12-20T04:39:11;6.10;;;1.70;;
14300;SDS011;7234;59.306;18.024;2023-12-20T04:41:40;4.07;;;2.23;;
14300;SDS011;7234;59.306;18.024;2023-12-20T04:44:07;5.23;;;1.80;;
14300;SDS011;7234;59.306;18.024;2023-12-20T04:46:34;6.97;;;1.90;;
14300;SDS011;7234;59.306;18.024;2023-12-20T04:49:01;3.40;;;1.90;;
14300;SDS011;7234;59.306;18.024;2023-12-20T04:51:28;6.53;;;1.80;;
14300;SDS011;7234;59.306;18.024;2023-12-20T04:53:55;6.37;;;1.83;;
14300;SDS011;7234;59.306;18.024;2023-12-20T04:56:23;5.80;;;1.90;;
14300;SDS011;7234;59.306;18.024;2023-12-20T04:58:50;10.40;;;1.80;;
14300;SDS011;7234;59.306;18.024;2023-12-20T05:01:17;9.90;;;2.07;;
14300;SDS011;7234;59.306;18.024;2023-12-20T05:03:45;4.80;;;1.73;;
14300;SDS011;7234;59.306;18.024;2023-12-20T05:06:12;6.10;;;1.87;;
14300;SDS011;7234;59.306;18.024;2023-12-20T05:08:39;5.67;;;2.00;;
14300;SDS011;7234;59.306;18.024;2023-12-20T05:11:07;1.97;;;1.40;;
14300;SDS011;7234;59.306;18.024;2023-12-20T05:13:35;6.77;;;2.00;;
14300;SDS011;7234;59.306;18.024;2023-12-20T05:16:03;6.23;;;1.73;;
14300;SDS011;7234;59.306;18.024;2023-12-20T05:18:30;7.60;;;2.77;;
14300;SDS011;7234;59.306;18.024;2023-12-20T05:20:57;6.70;;;1.70;;
14300;SDS011;7234;59.306;18.024;2023-12-20T05:23:24;5.33;;;1.53;;
14300;SDS011;7234;59.306;18.024;2023-12-20T05:25:51;2.53;;;1.30;;
14300;SDS011;7234;59.306;18.024;2023-12-20T05:28:18;8.20;;;1.80;;
14300;SDS011;7234;59.306;18.024;2023-12-20T05:30:47;6.40;;;1.67;;
14300;SDS011;7234;59.306;18.024;2023-12-20T05:33:14;6.40;;;1.90;;
14300;SDS011;7234;59.306;18.024;2023-12-20T05:35:41;7.97;;;1.63;;
14300;SDS011;7234;59.306;18.024;2023-12-20T05:38:08;4.93;;;1.73;;
14300;SDS011;7234;59.306;18.024;2023-12-20T05:40:35;5.70;;;2.00;;
14300;SDS011;7234;59.306;18.024;2023-12-20T05:43:02;7.90;;;2.30;;
14300;SDS011;7234;59.306;18.024;2023-12-20T05:45:29;7.10;;;2.70;;
14300;SDS011;7234;59.306;18.024;2023-12-20T05:47:58;6.23;;;1.80;;
14300;SDS011;7234;59.306;18.024;2023-12-20T05:50:24;7.00;;;2.27;;
14300;SDS011;7234;59.306;18.024;2023-12-20T05:52:51;7.70;;;2.13;;
14300;SDS011;7234;59.306;18.024;2023-12-20T05:55:18;8.73;;;2.23;;
14300;SDS011;7234;59.306;18.024;2023-12-20T05:57:45;7.50;;;2.60;;
14300;SDS011;7234;59.306;18.024;2023-12-20T06:00:13;8.53;;;2.30;;
14300;SDS011;7234;59.306;18.024;2023-12-20T06:02:41;11.40;;;3.10;;
14300;SDS011;7234;59.306;18.024;2023-12-20T06:05:10;9.77;;;2.60;;
14300;SDS011;7234;59.306;18.024;2023-12-20T06:07:37;5.73;;;2.50;;
14300;SDS011;7234;59.306;18.024;2023-12-20T06:10:05;11.33;;;2.90;;
14300;SDS011;7234;59.306;18.024;2023-12-20T06:12:32;5.90;;;2.40;;
14300;SDS011;7234;59.306;18.024;2023-12-20T06:15:01;10.00;;;2.53;;
14300;SDS011;7234;59.306;18.024;2023-12-20T06:17:28;7.57;;;2.70;;
14300;SDS011;7234;59.306;18.024;2023-12-20T06:19:56;5.90;;;2.53;;
14300;SDS011;7234;59.306;18.024;2023-12-20T06:22:24;10.73;;;3.23;;
14300;SDS011;7234;59.306;18.024;2023-12-20T06:24:51;7.13;;;2.83;;
14300;SDS011;7234;59.306;18.024;2023-12-20T06:27:18;8.00;;;3.40;;
14300;SDS011;7234;59.306;18.024;2023-12-20T06:29:45;15.87;;;3.90;;
14300;SDS011;7234;59.306;18.024;2023-12-20T06:32:12;19.53;;;4.13;;
14300;SDS011;7234;59.306;18.024;2023-12-20T06:34:39;8.93;;;3.63;;
14300;SDS011;7234;59.306;18.024;2023-12-20T06:37:06;6.77;;;3.67;;
14300;SDS011;7234;59.306;18.024;2023-12-20T06:39:35;12.10;;;4.07;;
14300;SDS011;7234;59.306;18.024;2023-12-20T06:42:02;14.77;;;4.13;;
14300;SDS011;7234;59.306;18.024;2023-12-20T06:44:30;9.47;;;3.50;;
14300;SDS011;7234;59.306;18.024;2023-12-20T06:46:57;18.80;;;3.50;;
14300;SDS011;7234;59.306;18.024;2023-12-20T06:49:24;13.90;;;3.43;;
14300;SDS011;7234;59.306;18.024;2023-12-20T06:51:51;7.70;;;2.60;;
14300;SDS011;7234;59.306;18.024;2023-12-20T06:54:18;7.77;;;2.70;;
14300;SDS011;7234;59.306;18.024;2023-12-20T06:56:47;9.93;;;3.60;;
14300;SDS011;7234;59.306;18.024;2023-12-20T06:59:13;12.63;;;4.20;;
14300;SDS011;7234;59.306;18.024;2023-12-20T07:01:41;15.07;;;3.60;;
14300;SDS011;7234;59.306;18.024;2023-12-20T07:04:08;11.43;;;3.50;;
14300;SDS011;7234;59.306;18.024;2023-12-20T07:06:36;13.67;;;4.17;;
14300;SDS011;7234;59.306;18.024;2023-12-20T07:09:03;9.13;;;4.20;;
14300;SDS011;7234;59.306;18.024;2023-12-20T07:11:30;7.83;;;4.27;;
14300;SDS011;7234;59.306;18.024;2023-12-20T07:13:58;10.37;;;4.13;;
14300;SDS011;7234;59.306;18.024;2023-12-20T07:16:26;11.30;;;4.40;;
14300;SDS011;7234;59.306;18.024;2023-12-20T07:18:53;14.13;;;4.77;;
14300;SDS011;7234;59.306;18.024;2023-12-20T07:21:22;13.10;;;4.67;;
14300;SDS011;7234;59.306;18.024;2023-12-20T07:23:49;14.93;;;5.17;;
14300;SDS011;7234;59.306;18.024;2023-12-20T07:26:16;17.97;;;5.47;;
14300;SDS011;7234;59.306;18.024;2023-12-20T07:28:43;14.33;;;4.70;;
14300;SDS011;7234;59.306;18.024;2023-12-20T07:31:12;18.53;;;4.87;;
14300;SDS011;7234;59.306;18.024;2023-12-20T07:33:41;10.33;;;4.10;;
14300;SDS011;7234;59.306;18.024;2023-12-20T07:36:08;8.40;;;3.73;;
14300;SDS011;7234;59.306;18.024;2023-12-20T07:38:35;7.80;;;3.37;;
14300;SDS011;7234;59.306;18.024;2023-12-20T07:41:02;11.83;;;3.73;;
14300;SDS011;7234;59.306;18.024;2023-12-20T07:43:30;11.77;;;3.67;;
14300;SDS011;7234;59.306;18.024;2023-12-20T07:45:56;8.13;;;3.53;;
14300;SDS011;7234;59.306;18.024;2023-12-20T07:48:25;10.00;;;4.07;;
14300;SDS011;7234;59.306;18.024;2023-12-20T07:50:52;13.67;;;3.73;;
14300;SDS011;7234;59.306;18.024;2023-12-20T07:53:19;5.77;;;3.33;;
14300;SDS011;7234;59.306;18.024;2023-12-20T07:55:46;10.87;;;3.33;;
14300;SDS011;7234;59.306;18.024;2023-12-20T07:58:14;10.87;;;3.03;;
14300;SDS011;7234;59.306;18.024;2023-12-20T08:00:41;14.30;;;4.33;;
14300;SDS011;7234;59.306;18.024;2023-12-20T08:03:08;10.53;;;3.67;;
14300;SDS011;7234;59.306;18.024;2023-12-20T08:05:37;10.97;;;3.33;;
14300;SDS011;7234;59.306;18.024;2023-12-20T08:08:05;11.27;;;3.33;;
14300;SDS011;7234;59.306;18.024;2023-12-20T08:10:33;12.43;;;2.90;;
14300;SDS011;7234;59.306;18.024;2023-12-20T08:13:00;6.87;;;3.07;;
14300;SDS011;7234;59.306;18.024;2023-12-20T08:15:27;10.67;;;2.80;;
14300;SDS011;7234;59.306;18.024;2023-12-20T08:17:53;7.80;;;2.70;;
14300;SDS011;7234;59.306;18.024;2023-12-20T08:20:20;6.20;;;2.60;;
14300;SDS011;7234;59.306;18.024;2023-12-20T08:22:49;7.53;;;2.10;;
14300;SDS011;7234;59.306;18.024;2023-12-20T08:25:16;6.30;;;2.67;;
14300;SDS011;7234;59.306;18.024;2023-12-20T08:27:43;6.30;;;2.27;;
14300;SDS011;7234;59.306;18.024;2023-12-20T08:30:10;10.77;;;2.60;;
14300;SDS011;7234;59.306;18.024;2023-12-20T08:32:37;13.77;;;3.10;;
14300;SDS011;7234;59.306;18.024;2023-12-20T08:35:04;11.73;;;3.17;;
14300;SDS011;7234;59.306;18.024;2023-12-20T08:37:32;8.47;;;2.77;;
14300;SDS011;7234;59.306;18.024;2023-12-20T08:40:00;8.97;;;3.47;;
14300;SDS011;7234;59.306;18.024;2023-12-20T08:42:27;6.57;;;2.60;;
14300;SDS011;7234;59.306;18.024;2023-12-20T08:44:57;7.93;;;2.93;;
14300;SDS011;7234;59.306;18.024;2023-12-20T08:47:24;8.53;;;2.93;;
14300;SDS011;7234;59.306;18.024;2023-12-20T08:49:51;7.30;;;2.77;;
14300;SDS011;7234;59.306;18.024;2023-12-20T08:52:21;9.27;;;2.63;;
14300;SDS011;7234;59.306;18.024;2023-12-20T08:54:48;10.37;;;2.93;;
14300;SDS011;7234;59.306;18.024;2023-12-20T08:57:18;9.23;;;2.87;;
14300;SDS011;7234;59.306;18.024;2023-12-20T08:59:45;7.93;;;2.53;;
14300;SDS011;7234;59.306;18.024;2023-12-20T09:02:13;8.93;;;2.77;;
14300;SDS011;7234;59.306;18.024;2023-12-20T09:04:40;8.23;;;2.90;;
14300;SDS011;7234;59.306;18.024;2023-12-20T09:07:11;7.03;;;2.80;;
14300;SDS011;7234;59.306;18.024;2023-12-20T09:09:47;8.63;;;2.67;;
14300;SDS011;7234;59.306;18.024;2023-12-20T09:12:14;10.83;;;2.63;;
14300;SDS011;7234;59.306;18.024;2023-12-20T09:14:43;5.13;;;2.73;;
14300;SDS011;7234;59.306;18.024;2023-12-20T09:17:10;8.23;;;3.03;;
14300;SDS011;7234;59.306;18.024;2023-12-20T09:19:37;11.40;;;3.10;;
14300;SDS011;7234;59.306;18.024;2023-12-20T09:22:04;8.10;;;2.70;;
14300;SDS011;7234;59.306;18.024;2023-12-20T09:24:32;6.93;;;2.60;;
14300;SDS011;7234;59.306;18.024;2023-12-20T09:26:59;7.40;;;2.20;;
14300;SDS011;7234;59.306;18.024;2023-12-20T09:29:27;5.90;;;2.60;;
14300;SDS011;7234;59.306;18.024;2023-12-20T09:31:57;7.50;;;2.37;;
14300;SDS011;7234;59.306;18.024;2023-12-20T09:34:24;8.73;;;3.03;;
14300;SDS011;7234;59.306;18.024;2023-12-20T09:36:55;11.10;;;2.73;;
14300;SDS011;7234;59.306;18.024;2023-12-20T09:39:21;7.83;;;2.60;;
14300;SDS011;7234;59.306;18.024;2023-12-20T09:41:51;4.67;;;2.50;;
14300;SDS011;7234;59.306;18.024;2023-12-20T09:44:26;9.47;;;3.17;;
14300;SDS011;7234;59.306;18.024;2023-12-20T09:46:54;9.93;;;3.90;;
14300;SDS011;7234;59.306;18.024;2023-12-20T09:49:23;7.67;;;2.63;;
14300;SDS011;7234;59.306;18.024;2023-12-20T09:51:53;6.73;;;2.63;;
14300;SDS011;7234;59.306;18.024;2023-12-20T09:54:21;8.20;;;2.63;;
14300;SDS011;7234;59.306;18.024;2023-12-20T09:56:49;10.30;;;2.63;;
14300;SDS011;7234;59.306;18.024;2023-12-20T09:59:16;4.80;;;2.20;;
14300;SDS011;7234;59.306;18.024;2023-12-20T10:01:43;6.20;;;2.97;;
14300;SDS011;7234;59.306;18.024;2023-12-20T10:04:12;11.83;;;2.40;;
14300;SDS011;7234;59.306;18.024;2023-12-20T10:06:39;7.83;;;2.60;;
14300;SDS011;7234;59.306;18.024;2023-12-20T10:09:06;9.27;;;2.63;;
14300;SDS011;7234;59.306;18.024;2023-12-20T10:11:34;9.43;;;2.57;;
14300;SDS011;7234;59.306;18.024;2023-12-20T10:14:05;5.13;;;2.37;;
14300;SDS011;7234;59.306;18.024;2023-12-20T10:16:33;5.33;;;2.43;;
14300;SDS011;7234;59.306;18.024;2023-12-20T10:19:00;6.37;;;2.43;;
14300;SDS011;7234;59.306;18.024;2023-12-20T10:21:28;6.73;;;2.20;;
14300;SDS011;7234;59.306;18.024;2023-12-20T10:23:56;9.67;;;2.77;;
14300;SDS011;7234;59.306;18.024;2023-12-20T10:26:24;6.33;;;2.43;;
14300;SDS011;7234;59.306;18.024;2023-12-20T10:28:53;6.47;;;1.93;;
14300;SDS011;7234;59.306;18.024;2023-12-20T10:31:27;6.33;;;2.47;;
14300;SDS011;7234;59.306;18.024;2023-12-20T10:33:56;6.10;;;2.50;;
14300;SDS011;7234;59.306;18.024;2023-12-20T10:36:24;9.27;;;2.83;;
14300;SDS011;7234;59.306;18.024;2023-12-20T10:38:54;11.70;;;2.77;;
14300;SDS011;7234;59.306;18.024;2023-12-20T10:41:24;4.70;;;2.20;;
14300;SDS011;7234;59.306;18.024;2023-12-20T10:43:53;9.97;;;2.27;;
14300;SDS011;7234;59.306;18.024;2023-12-20T10:46:24;8.03;;;2.30;;
14300;SDS011;7234;59.306;18.024;2023-12-20T10:48:53;6.53;;;2.20;;
14300;SDS011;7234;59.306;18.024;2023-12-20T10:51:21;5.40;;;2.23;;
14300;SDS011;7234;59.306;18.024;2023-12-20T10:53:51;6.30;;;2.13;;
14300;SDS011;7234;59.306;18.024;2023-12-20T10:56:20;4.07;;;1.63;;
14300;SDS011;7234;59.306;18.024;2023-12-20T10:58:48;8.57;;;2.27;;
14300;SDS011;7234;59.306;18.024;2023-12-20T11:01:16;5.03;;;2.17;;
14300;SDS011;7234;59.306;18.024;2023-12-20T11:03:49;8.27;;;2.20;;
14300;SDS011;7234;59.306;18.024;2023-12-20T11:06:27;5.50;;;1.90;;
14300;SDS011;7234;59.306;18.024;2023-12-20T11:09:03;2.37;;;1.57;;
14300;SDS011;7234;59.306;18.024;2023-12-20T11:11:41;5.80;;;1.90;;
14300;SDS011;7234;59.306;18.024;2023-12-20T11:14:18;7.87;;;1.67;;
14300;SDS011;7234;59.306;18.024;2023-12-20T11:16:50;5.30;;;1.73;;
14300;SDS011;7234;59.306;18.024;2023-12-20T11:19:17;4.20;;;1.60;;
14300;SDS011;7234;59.306;18.024;2023-12-20T11:21:44;7.97;;;1.50;;
14300;SDS011;7234;59.306;18.024;2023-12-20T11:24:14;7.20;;;1.67;;
14300;SDS011;7234;59.306;18.024;2023-12-20T11:26:46;7.33;;;2.17;;
14300;SDS011;7234;59.306;18.024;2023-12-20T11:32:01;2.23;;;1.27;;
14300;SDS011;7234;59.306;18.024;2023-12-20T11:34:31;8.33;;;1.63;;
14300;SDS011;7234;59.306;18.024;2023-12-20T11:36:59;6.33;;;1.70;;
14300;SDS011;7234;59.306;18.024;2023-12-20T11:39:28;6.70;;;1.70;;
14300;SDS011;7234;59.306;18.024;2023-12-20T11:41:57;3.63;;;1.60;;
14300;SDS011;7234;59.306;18.024;2023-12-20T11:44:30;4.83;;;2.20;;
14300;SDS011;7234;59.306;18.024;2023-12-20T11:46:57;7.37;;;2.00;;
14300;SDS011;7234;59.306;18.024;2023-12-20T11:49:25;10.47;;;1.73;;
14300;SDS011;7234;59.306;18.024;2023-12-20T11:51:54;4.50;;;1.80;;
14300;SDS011;7234;59.306;18.024;2023-12-20T11:54:21;4.50;;;1.93;;
14300;SDS011;7234;59.306;18.024;2023-12-20T11:56:49;3.80;;;1.53;;
14300;SDS011;7234;59.306;18.024;2023-12-20T11:59:16;5.27;;;1.80;;
14300;SDS011;7234;59.306;18.024;2023-12-20T12:01:47;9.47;;;2.17;;
14300;SDS011;7234;59.306;18.024;2023-12-20T12:04:15;4.13;;;2.23;;
14300;SDS011;7234;59.306;18.024;2023-12-20T12:06:43;7.07;;;1.50;;
14300;SDS011;7234;59.306;18.024;2023-12-20T12:09:12;3.57;;;1.60;;
14300;SDS011;7234;59.306;18.024;2023-12-20T12:11:40;2.70;;;1.60;;
14300;SDS011;7234;59.306;18.024;2023-12-20T12:14:08;3.93;;;0.90;;
14300;SDS011;7234;59.306;18.024;2023-12-20T12:16:36;4.87;;;1.10;;
14300;SDS011;7234;59.306;18.024;2023-12-20T12:19:03;1.77;;;0.97;;
14300;SDS011;7234;59.306;18.024;2023-12-20T12:21:30;2.67;;;1.03;;
14300;SDS011;7234;59.306;18.024;2023-12-20T12:24:06;1.87;;;0.97;;
14300;SDS011;7234;59.306;18.024;2023-12-20T12:26:33;0.80;;;0.80;;
14300;SDS011;7234;59.306;18.024;2023-12-20T12:29:00;2.03;;;1.13;;
14300;SDS011;7234;59.306;18.024;2023-12-20T12:31:29;2.43;;;1.00;;
14300;SDS011;7234;59.306;18.024;2023-12-20T12:33:56;2.67;;;1.00;;
14300;SDS011;7234;59.306;18.024;2023-12-20T12:36:23;2.37;;;1.00;;
14300;SDS011;7234;59.306;18.024;2023-12-20T12:38:51;3.80;;;1.23;;
14300;SDS011;7234;59.306;18.024;2023-12-20T12:41:18;1.13;;;1.00;;
14300;SDS011;7234;59.306;18.024;2023-12-20T12:43:45;1.37;;;1.00;;
14300;SDS011;7234;59.306;18.024;2023-12-20T12:46:12;2.87;;;1.10;;
14300;SDS011;7234;59.306;18.024;2023-12-20T12:48:40;2.63;;;1.10;;
14300;SDS011;7234;59.306;18.024;2023-12-20T12:51:07;5.03;;;1.37;;
14300;SDS011;7234;59.306;18.024;2023-12-20T12:53:38;4.23;;;1.30;;
14300;SDS011;7234;59.306;18.024;2023-12-20T12:56:05;3.87;;;1.53;;
14300;SDS011;7234;59.306;18.024;2023-12-20T12:58:32;9.57;;;1.43;;
14300;SDS011;7234;59.306;18.024;2023-12-20T13:00:59;8.93;;;1.60;;
14300;SDS011;7234;59.306;18.024;2023-12-20T13:03:26;1.73;;;1.03;;
14300;SDS011;7234;59.306;18.024;2023-12-20T13:05:54;3.03;;;1.00;;
14300;SDS011;7234;59.306;18.024;2023-12-20T13:08:22;2.23;;;0.93;;
14300;SDS011;7234;59.306;18.024;2023-12-20T13:10:49;4.60;;;1.03;;
14300;SDS011;7234;59.306;18.024;2023-12-20T13:13:16;3.13;;;1.37;;
14300;SDS011;7234;59.306;18.024;2023-12-20T13:15:43;3.40;;;0.90;;
14300;SDS011;7234;59.306;18.024;2023-12-20T13:18:15;4.40;;;1.03;;
14300;SDS011;7234;59.306;18.024;2023-12-20T13:20:43;4.20;;;1.17;;
14300;SDS011;7234;59.306;18.024;2023-12-20T13:23:12;3.27;;;1.10;;
14300;SDS011;7234;59.306;18.024;2023-12-20T13:25:39;2.73;;;1.40;;
14300;SDS011;7234;59.306;18.024;2023-12-20T13:28:06;8.70;;;2.07;;
14300;SDS011;7234;59.306;18.024;2023-12-20T13:30:34;5.33;;;1.50;;
14300;SDS011;7234;59.306;18.024;2023-12-20T13:33:01;3.97;;;1.43;;
14300;SDS011;7234;59.306;18.024;2023-12-20T13:35:28;6.73;;;1.50;;
14300;SDS011;7234;59.306;18.024;2023-12-20T13:37:55;4.23;;;1.40;;
14300;SDS011;7234;59.306;18.024;2023-12-20T13:40:24;11.80;;;1.83;;
14300;SDS011;7234;59.306;18.024;2023-12-20T13:42:51;2.97;;;1.30;;
14300;SDS011;7234;59.306;18.024;2023-12-20T13:45:20;3.97;;;1.10;;
14300;SDS011;7234;59.306;18.024;2023-12-20T13:47:47;2.83;;;1.23;;
14300;SDS011;7234;59.306;18.024;2023-12-20T13:50:14;7.97;;;1.20;;
14300;SDS011;7234;59.306;18.024;2023-12-20T13:52:41;6.60;;;1.13;;
14300;SDS011;7234;59.306;18.024;2023-12-20T13:55:09;3.23;;;1.20;;
14300;SDS011;7234;59.306;18.024;2023-12-20T13:57:37;1.33;;;1.10;;
14300;SDS011;7234;59.306;18.024;2023-12-20T14:00:07;3.33;;;1.00;;
14300;SDS011;7234;59.306;18.024;2023-12-20T14:02:39;2.33;;;1.47;;
14300;SDS011;7234;59.306;18.024;2023-12-20T14:05:08;2.13;;;1.37;;
14300;SDS011;7234;59.306;18.024;2023-12-20T14:07:35;4.23;;;1.40;;
14300;SDS011;7234;59.306;18.024;2023-12-20T14:10:03;2.40;;;1.07;;
14300;SDS011;7234;59.306;18.024;2023-12-20T14:12:30;4.20;;;1.67;;
14300;SDS011;7234;59.306;18.024;2023-12-20T14:15:02;4.10;;;1.83;;
14300;SDS011;7234;59.306;18.024;2023-12-20T14:17:34;3.03;;;1.60;;
14300;SDS011;7234;59.306;18.024;2023-12-20T14:20:01;6.53;;;2.00;;
14300;SDS011;7234;59.306;18.024;2023-12-20T14:22:28;6.13;;;2.00;;
14300;SDS011;7234;59.306;18.024;2023-12-20T14:24:55;4.57;;;1.83;;
14300;SDS011;7234;59.306;18.024;2023-12-20T14:27:23;7.30;;;2.33;;
14300;SDS011;7234;59.306;18.024;2023-12-20T14:29:52;4.03;;;1.73;;
14300;SDS011;7234;59.306;18.024;2023-12-20T14:32:21;7.27;;;2.63;;
14300;SDS011;7234;59.306;18.024;2023-12-20T14:34:48;4.33;;;1.60;;
14300;SDS011;7234;59.306;18.024;2023-12-20T14:37:15;4.47;;;1.67;;
14300;SDS011;7234;59.306;18.024;2023-12-20T14:39:42;2.73;;;1.40;;
14300;SDS011;7234;59.306;18.024;2023-12-20T14:42:09;4.80;;;1.83;;
14300;SDS011;7234;59.306;18.024;2023-12-20T14:44:38;4.30;;;1.73;;
14300;SDS011;7234;59.306;18.024;2023-12-20T14:47:06;5.03;;;1.60;;
14300;SDS011;7234;59.306;18.024;2023-12-20T14:49:35;5.33;;;1.87;;
14300;SDS011;7234;59.306;18.024;2023-12-20T14:52:03;3.40;;;1.60;;